Banquereau - southeastern half: Past 24 Hour Conditions

 

Banquereau - 44139

02:00 AM AST 10 February 2016Buoy position: 44.27N 57.08W
Disclaimer

This table is a summary of hourly weather conditions for the past 24 hours.
Please note that these observations might not always be representative of weather conditions over their associated marine area.

Date / Time
(AST)
Wind(knots) Wave height(m) Wave period(s) Pressure(kPa) Air tempC) Water tempC)
10 February 2016
2:00 ENE 16 gust 18 4.2 14.0 98.3 5 4
1:00 NNE 12 gust 18 4.4 12.0 98.8 4 4
0:00 ENE 19 gust 25 4.8 15.0 98.8 4 4
09 February 2016
23:00 ENE 18 gust 29 5.3 14.0 99.2 3 4
22:00 N/A N/A N/A N/A N/A N/A
21:00 NE 10 gust 16 6.1 15.0 99.8 2 4
20:00 W 4 gust 8 5.8 15.0 100.1 2 4
19:00 W 12 gust 16 6.6 16.0 100.2 3 4
18:00 W 18 gust 21 6.4 14.0 100.3 3 4
17:00 WSW 21 gust 29 7.2 14.0 100.3 3 4
16:00 W 23 gust 29 7.6 12.0 100.2 3 4
15:00 WSW 29 gust 35 8.0 16.0 100.1 3 5
14:00 WSW 35 gust 43 8.5 12.0 100.0 4 5
13:00 SW 37 gust 47 8.8 15.0 99.8 4 5
12:00 SW 37 gust 47 8.0 14.0 99.6 4 6
11:00 N/A N/A N/A N/A N/A N/A
10:00 SW 39 gust 53 7.4 12.0 99.2 6 6
9:00 SW 33 gust 47 7.1 13.0 99.0 7 7
8:00 SSW 35 gust 47 7.4 11.0 98.8 8 7
7:00 SSW 27 gust 37 6.6 13.0 98.6 10 7
6:00 S 21 gust 37 7.0 12.0 98.4 11 7
5:00 ESE 19 gust 25 7.6 12.0 98.4 8 7
4:00 E 29 gust 37 9.1 12.0 98.4 5 7
3:00 E 33 gust 41 9.0 12.0 98.6 4 7
2:00 E 35 gust 43 8.5 12.0 98.8 4 6

Zoom-in to make a selection

Map of Atlantic - Newfoundland marine weather areas Southwestern Grand Banks - 44138 Banquereau - 44139 Tail of the Bank - 44140 Nickerson Bank - 44251 Northeast Burgeo Bank - 44255 Blanc-Sablon Airport Cap Whittle Chevery Natashquan Airport Heath Point Miscou Island Grand Étang Ingonish Beach North Mountain St.Paul Island J.A. Douglas McCurdy Sydney Airport Charlottetown Airport East Point North Cape Argentia Bonavista Burgeo Cape Race Corner Brook Daniel's Harbour Englee Ferolle Point La Scie Port aux Basques Rocky Harbour Sagona Island St. Anthony Airport St. John's Int'l Airport St. Lawrence Stephenville Airport Twillingate Winterland Wreckhouse Cartwright Airport Mary's Harbour Grates Cove Pool's Island Marticot Island Long Pond Eskasoni (First Nations) Îles de la Madeleine Airport
Legend:
buoy Buoy
land station Land Station

Atlantic - Newfoundland Area

Another Region

What we are doing

Date modified: